sensor_id;sensor_type;location;lat;lon;timestamp;pressure;altitude;pressure_sealevel;temperature;humidity
12799;BME280;19250;42.646;26.980;2023-04-27T00:00:47;98356.16;;;11.85;100.00
12799;BME280;19250;42.646;26.980;2023-04-27T00:03:16;98354.91;;;11.95;100.00
12799;BME280;19250;42.646;26.980;2023-04-27T00:05:43;98355.72;;;11.96;100.00
12799;BME280;19250;42.646;26.980;2023-04-27T00:08:11;98363.66;;;12.04;100.00
12799;BME280;19250;42.646;26.980;2023-04-27T00:10:38;98366.50;;;12.02;100.00
12799;BME280;19250;42.646;26.980;2023-04-27T00:13:05;98362.94;;;12.10;100.00
12799;BME280;19250;42.646;26.980;2023-04-27T00:15:32;98358.78;;;12.08;100.00
12799;BME280;19250;42.646;26.980;2023-04-27T00:18:00;98360.53;;;12.15;100.00
12799;BME280;19250;42.646;26.980;2023-04-27T00:20:29;98362.34;;;12.00;100.00
12799;BME280;19250;42.646;26.980;2023-04-27T00:22:56;98357.44;;;11.74;100.00
12799;BME280;19250;42.646;26.980;2023-04-27T00:25:23;98365.75;;;11.57;100.00
12799;BME280;19250;42.646;26.980;2023-04-27T00:27:50;98371.56;;;11.60;100.00
12799;BME280;19250;42.646;26.980;2023-04-27T00:30:18;98358.50;;;11.65;100.00
12799;BME280;19250;42.646;26.980;2023-04-27T00:32:46;98365.81;;;11.71;100.00
12799;BME280;19250;42.646;26.980;2023-04-27T00:35:13;98367.94;;;11.53;100.00
12799;BME280;19250;42.646;26.980;2023-04-27T00:37:42;98359.78;;;11.69;100.00
12799;BME280;19250;42.646;26.980;2023-04-27T00:40:10;98363.81;;;11.88;100.00
12799;BME280;19250;42.646;26.980;2023-04-27T00:42:37;98371.09;;;11.57;100.00
12799;BME280;19250;42.646;26.980;2023-04-27T00:45:05;98365.81;;;11.71;100.00
12799;BME280;19250;42.646;26.980;2023-04-27T00:47:33;98371.09;;;11.57;100.00
12799;BME280;19250;42.646;26.980;2023-04-27T00:50:01;98364.16;;;11.70;100.00
12799;BME280;19250;42.646;26.980;2023-04-27T00:52:30;98377.97;;;11.51;100.00
12799;BME280;19250;42.646;26.980;2023-04-27T00:55:01;98373.22;;;11.61;100.00
12799;BME280;19250;42.646;26.980;2023-04-27T00:57:28;98371.91;;;11.57;100.00
12799;BME280;19250;42.646;26.980;2023-04-27T00:59:56;98361.38;;;11.41;100.00
12799;BME280;19250;42.646;26.980;2023-04-27T01:02:25;98377.63;;;11.31;100.00
12799;BME280;19250;42.646;26.980;2023-04-27T01:04:54;98374.91;;;11.17;100.00
12799;BME280;19250;42.646;26.980;2023-04-27T01:07:24;98381.56;;;11.21;100.00
12799;BME280;19250;42.646;26.980;2023-04-27T01:09:51;98384.22;;;11.21;100.00
12799;BME280;19250;42.646;26.980;2023-04-27T01:12:20;98395.38;;;11.24;100.00
12799;BME280;19250;42.646;26.980;2023-04-27T01:14:47;98404.81;;;11.12;100.00
12799;BME280;19250;42.646;26.980;2023-04-27T01:17:14;98407.81;;;11.09;100.00
12799;BME280;19250;42.646;26.980;2023-04-27T01:19:42;98406.53;;;11.28;100.00
12799;BME280;19250;42.646;26.980;2023-04-27T01:22:10;98405.09;;;11.17;98.61
12799;BME280;19250;42.646;26.980;2023-04-27T01:24:41;98418.91;;;11.21;97.97
12799;BME280;19250;42.646;26.980;2023-04-27T01:27:08;98428.03;;;11.04;94.93
12799;BME280;19250;42.646;26.980;2023-04-27T01:29:37;98431.25;;;11.22;94.17
12799;BME280;19250;42.646;26.980;2023-04-27T01:32:04;98423.84;;;11.32;93.18
12799;BME280;19250;42.646;26.980;2023-04-27T01:34:33;98426.84;;;11.06;92.53
12799;BME280;19250;42.646;26.980;2023-04-27T01:37:00;98410.53;;;11.01;92.33
12799;BME280;19250;42.646;26.980;2023-04-27T01:39:27;98415.06;;;11.01;93.66
12799;BME280;19250;42.646;26.980;2023-04-27T01:41:56;98410.72;;;11.00;92.61
12799;BME280;19250;42.646;26.980;2023-04-27T01:44:23;98430.50;;;11.05;91.32
12799;BME280;19250;42.646;26.980;2023-04-27T01:46:51;98424.59;;;11.18;91.61
12799;BME280;19250;42.646;26.980;2023-04-27T01:49:18;98427.19;;;11.03;91.84
12799;BME280;19250;42.646;26.980;2023-04-27T01:51:45;98439.13;;;11.15;91.93
12799;BME280;19250;42.646;26.980;2023-04-27T01:54:12;98443.09;;;11.19;92.06
12799;BME280;19250;42.646;26.980;2023-04-27T01:56:40;98444.06;;;11.26;92.12
12799;BME280;19250;42.646;26.980;2023-04-27T01:59:09;98461.28;;;11.46;91.53
12799;BME280;19250;42.646;26.980;2023-04-27T02:01:36;98464.50;;;11.65;90.64
12799;BME280;19250;42.646;26.980;2023-04-27T02:04:04;98464.38;;;11.58;91.52
12799;BME280;19250;42.646;26.980;2023-04-27T02:06:32;98460.03;;;11.57;94.32
12799;BME280;19250;42.646;26.980;2023-04-27T02:08:59;98462.34;;;11.60;95.05
12799;BME280;19250;42.646;26.980;2023-04-27T02:11:26;98461.50;;;11.60;98.55
12799;BME280;19250;42.646;26.980;2023-04-27T02:13:55;98470.22;;;11.54;100.00
12799;BME280;19250;42.646;26.980;2023-04-27T02:16:23;98467.63;;;11.68;100.00
12799;BME280;19250;42.646;26.980;2023-04-27T02:18:51;98463.91;;;11.77;100.00
12799;BME280;19250;42.646;26.980;2023-04-27T02:21:19;98465.94;;;12.13;98.82
12799;BME280;19250;42.646;26.980;2023-04-27T02:23:47;98467.31;;;12.09;99.49
12799;BME280;19250;42.646;26.980;2023-04-27T02:26:18;98437.19;;;11.77;100.00
12799;BME280;19250;42.646;26.980;2023-04-27T02:28:45;98473.50;;;11.86;100.00
12799;BME280;19250;42.646;26.980;2023-04-27T02:31:13;98450.59;;;11.69;100.00
12799;BME280;19250;42.646;26.980;2023-04-27T02:33:42;98465.53;;;11.33;100.00
12799;BME280;19250;42.646;26.980;2023-04-27T02:36:10;98464.63;;;11.71;100.00
12799;BME280;19250;42.646;26.980;2023-04-27T02:38:37;98478.13;;;11.47;100.00
12799;BME280;19250;42.646;26.980;2023-04-27T02:41:04;98478.09;;;11.24;100.00
12799;BME280;19250;42.646;26.980;2023-04-27T02:43:31;98483.94;;;11.28;100.00
12799;BME280;19250;42.646;26.980;2023-04-27T02:46:01;98460.63;;;11.22;100.00
12799;BME280;19250;42.646;26.980;2023-04-27T02:48:29;98500.63;;;11.22;100.00
12799;BME280;19250;42.646;26.980;2023-04-27T02:50:58;98495.72;;;11.03;100.00
12799;BME280;19250;42.646;26.980;2023-04-27T02:53:26;98500.81;;;11.20;100.00
12799;BME280;19250;42.646;26.980;2023-04-27T02:55:54;98508.41;;;11.31;99.54
12799;BME280;19250;42.646;26.980;2023-04-27T02:58:21;98501.34;;;11.69;97.04
12799;BME280;19250;42.646;26.980;2023-04-27T03:00:53;98482.53;;;11.40;96.85
12799;BME280;19250;42.646;26.980;2023-04-27T03:03:20;98496.56;;;11.34;96.91
12799;BME280;19250;42.646;26.980;2023-04-27T03:05:49;98504.56;;;11.34;97.57
12799;BME280;19250;42.646;26.980;2023-04-27T03:08:17;98509.22;;;11.40;98.04
12799;BME280;19250;42.646;26.980;2023-04-27T03:10:45;98518.09;;;11.32;98.78
12799;BME280;19250;42.646;26.980;2023-04-27T03:13:13;98515.91;;;11.36;98.48
12799;BME280;19250;42.646;26.980;2023-04-27T03:15:40;98514.50;;;10.78;100.00
12799;BME280;19250;42.646;26.980;2023-04-27T03:18:07;98529.50;;;10.71;100.00
12799;BME280;19250;42.646;26.980;2023-04-27T03:20:36;98525.13;;;10.86;99.62
12799;BME280;19250;42.646;26.980;2023-04-27T03:23:03;98526.06;;;11.02;98.28
12799;BME280;19250;42.646;26.980;2023-04-27T03:25:32;98530.38;;;10.56;99.44
12799;BME280;19250;42.646;26.980;2023-04-27T03:28:00;98531.22;;;10.56;100.00
12799;BME280;19250;42.646;26.980;2023-04-27T03:30:27;98531.69;;;10.76;100.00
12799;BME280;19250;42.646;26.980;2023-04-27T03:32:54;98536.47;;;10.80;99.87
12799;BME280;19250;42.646;26.980;2023-04-27T03:35:22;98523.78;;;10.90;98.48
12799;BME280;19250;42.646;26.980;2023-04-27T03:37:49;98526.41;;;10.99;98.07
12799;BME280;19250;42.646;26.980;2023-04-27T03:40:17;98521.13;;;10.82;98.00
12799;BME280;19250;42.646;26.980;2023-04-27T03:42:45;98525.28;;;10.93;95.63
12799;BME280;19250;42.646;26.980;2023-04-27T03:45:13;98528.84;;;10.69;96.42
12799;BME280;19250;42.646;26.980;2023-04-27T03:47:41;98527.28;;;10.83;96.18
12799;BME280;19250;42.646;26.980;2023-04-27T03:50:09;98539.47;;;10.85;95.09
12799;BME280;19250;42.646;26.980;2023-04-27T03:52:36;98540.19;;;10.55;94.47
12799;BME280;19250;42.646;26.980;2023-04-27T03:55:05;98548.19;;;10.63;93.75
12799;BME280;19250;42.646;26.980;2023-04-27T03:57:32;98548.91;;;10.41;96.22
12799;BME280;19250;42.646;26.980;2023-04-27T04:00:01;98552.81;;;10.85;94.71
12799;BME280;19250;42.646;26.980;2023-04-27T04:02:31;98556.84;;;10.65;93.02
12799;BME280;19250;42.646;26.980;2023-04-27T04:04:59;98556.56;;;10.44;95.36
12799;BME280;19250;42.646;26.980;2023-04-27T04:07:26;98553.88;;;10.60;94.65
12799;BME280;19250;42.646;26.980;2023-04-27T04:09:53;98567.06;;;10.46;94.85
12799;BME280;19250;42.646;26.980;2023-04-27T04:12:20;98566.16;;;10.77;94.01
12799;BME280;19250;42.646;26.980;2023-04-27T04:14:48;98580.59;;;10.99;93.01
12799;BME280;19250;42.646;26.980;2023-04-27T04:17:17;98576.13;;;10.91;91.43
12799;BME280;19250;42.646;26.980;2023-04-27T04:19:44;98594.00;;;10.59;93.43
12799;BME280;19250;42.646;26.980;2023-04-27T04:22:12;98583.63;;;10.80;95.06
12799;BME280;19250;42.646;26.980;2023-04-27T04:24:39;98589.50;;;10.75;93.31
12799;BME280;19250;42.646;26.980;2023-04-27T04:27:06;98594.03;;;10.34;95.16
12799;BME280;19250;42.646;26.980;2023-04-27T04:29:33;98510.75;;;9.76;95.43
12799;BME280;19250;42.646;26.980;2023-04-27T04:32:01;98607.88;;;10.38;95.32
12799;BME280;19250;42.646;26.980;2023-04-27T04:34:30;98606.69;;;10.57;93.98
12799;BME280;19250;42.646;26.980;2023-04-27T04:36:58;98612.84;;;10.57;93.44
12799;BME280;19250;42.646;26.980;2023-04-27T04:39:29;98619.69;;;10.52;92.07
12799;BME280;19250;42.646;26.980;2023-04-27T04:41:56;98617.53;;;10.63;91.41
12799;BME280;19250;42.646;26.980;2023-04-27T04:44:24;98626.34;;;10.31;92.99
12799;BME280;19250;42.646;26.980;2023-04-27T04:46:51;98620.84;;;10.41;94.18
12799;BME280;19250;42.646;26.980;2023-04-27T04:49:19;98632.34;;;10.66;92.46
12799;BME280;19250;42.646;26.980;2023-04-27T04:51:48;98644.13;;;11.04;90.24
12799;BME280;19250;42.646;26.980;2023-04-27T04:54:15;98640.63;;;11.03;90.28
12799;BME280;19250;42.646;26.980;2023-04-27T04:56:43;98649.31;;;10.89;92.32
12799;BME280;19250;42.646;26.980;2023-04-27T04:59:11;98648.97;;;10.92;92.95
12799;BME280;19250;42.646;26.980;2023-04-27T05:01:38;98658.63;;;11.01;92.01
12799;BME280;19250;42.646;26.980;2023-04-27T05:04:05;98656.16;;;10.83;91.12
12799;BME280;19250;42.646;26.980;2023-04-27T05:06:34;98662.81;;;10.87;92.57
12799;BME280;19250;42.646;26.980;2023-04-27T05:09:02;98672.00;;;11.48;91.35
12799;BME280;19250;42.646;26.980;2023-04-27T05:11:31;98669.06;;;11.27;89.45
12799;BME280;19250;42.646;26.980;2023-04-27T05:13:58;98670.88;;;11.34;88.64
12799;BME280;19250;42.646;26.980;2023-04-27T05:16:25;98684.56;;;11.31;88.13
12799;BME280;19250;42.646;26.980;2023-04-27T05:18:52;98679.28;;;11.15;89.31
12799;BME280;19250;42.646;26.980;2023-04-27T05:21:20;98686.34;;;11.47;86.94
12799;BME280;19250;42.646;26.980;2023-04-27T05:23:47;98692.31;;;11.73;86.92
12799;BME280;19250;42.646;26.980;2023-04-27T05:26:16;98692.28;;;11.65;83.83
12799;BME280;19250;42.646;26.980;2023-04-27T05:28:44;98697.38;;;11.44;86.82
12799;BME280;19250;42.646;26.980;2023-04-27T05:31:13;98695.66;;;11.59;84.15
12799;BME280;19250;42.646;26.980;2023-04-27T05:33:41;98698.22;;;11.91;82.49
12799;BME280;19250;42.646;26.980;2023-04-27T05:36:08;98691.56;;;12.18;81.13
12799;BME280;19250;42.646;26.980;2023-04-27T05:38:35;98695.66;;;12.06;81.89
12799;BME280;19250;42.646;26.980;2023-04-27T05:41:04;98694.66;;;12.30;81.47
12799;BME280;19250;42.646;26.980;2023-04-27T05:43:33;98690.09;;;12.84;78.63
12799;BME280;19250;42.646;26.980;2023-04-27T05:46:02;98696.78;;;13.02;76.26
12799;BME280;19250;42.646;26.980;2023-04-27T05:48:29;98692.84;;;12.53;75.95
12799;BME280;19250;42.646;26.980;2023-04-27T05:51:14;98688.38;;;12.23;77.68
12799;BME280;19250;42.646;26.980;2023-04-27T05:53:41;98687.69;;;11.98;79.00
12799;BME280;19250;42.646;26.980;2023-04-27T05:56:09;98694.88;;;11.97;79.87
12799;BME280;19250;42.646;26.980;2023-04-27T05:58:38;98690.50;;;12.05;78.92
12799;BME280;19250;42.646;26.980;2023-04-27T06:01:06;98696.06;;;12.18;77.60
12799;BME280;19250;42.646;26.980;2023-04-27T06:03:34;98690.84;;;12.24;78.33
12799;BME280;19250;42.646;26.980;2023-04-27T06:06:01;98688.97;;;12.33;77.45
12799;BME280;19250;42.646;26.980;2023-04-27T06:08:28;98693.00;;;12.29;77.17
12799;BME280;19250;42.646;26.980;2023-04-27T06:10:56;98698.59;;;12.19;77.18
12799;BME280;19250;42.646;26.980;2023-04-27T06:13:23;98687.06;;;12.19;76.51
12799;BME280;19250;42.646;26.980;2023-04-27T06:15:52;98691.75;;;12.17;79.06
12799;BME280;19250;42.646;26.980;2023-04-27T06:18:19;98692.59;;;12.40;77.68
12799;BME280;19250;42.646;26.980;2023-04-27T06:20:46;98697.66;;;12.35;75.74
12799;BME280;19250;42.646;26.980;2023-04-27T06:23:14;98706.38;;;12.51;75.43
12799;BME280;19250;42.646;26.980;2023-04-27T06:25:41;98700.22;;;11.97;75.46
12799;BME280;19250;42.646;26.980;2023-04-27T06:28:08;98693.31;;;12.03;75.46
12799;BME280;19250;42.646;26.980;2023-04-27T06:30:36;98699.63;;;11.71;80.44
12799;BME280;19250;42.646;26.980;2023-04-27T06:33:04;98692.31;;;11.73;81.01
12799;BME280;19250;42.646;26.980;2023-04-27T06:35:31;98701.19;;;12.05;80.42
12799;BME280;19250;42.646;26.980;2023-04-27T06:37:59;98699.66;;;11.63;75.89
12799;BME280;19250;42.646;26.980;2023-04-27T06:40:26;98702.69;;;11.52;78.06
12799;BME280;19250;42.646;26.980;2023-04-27T06:42:53;98705.31;;;11.76;78.99
12799;BME280;19250;42.646;26.980;2023-04-27T06:45:21;98709.28;;;11.88;79.24
12799;BME280;19250;42.646;26.980;2023-04-27T06:47:48;98715.66;;;11.71;78.69
12799;BME280;19250;42.646;26.980;2023-04-27T06:50:17;98715.69;;;11.63;78.88
12799;BME280;19250;42.646;26.980;2023-04-27T06:52:44;98714.47;;;11.82;76.58
12799;BME280;19250;42.646;26.980;2023-04-27T06:55:11;98720.78;;;11.89;74.92
12799;BME280;19250;42.646;26.980;2023-04-27T06:57:39;98728.06;;;11.48;78.35
12799;BME280;19250;42.646;26.980;2023-04-27T07:00:07;98720.53;;;11.60;80.14
12799;BME280;19250;42.646;26.980;2023-04-27T07:02:35;98725.59;;;11.93;79.26
12799;BME280;19250;42.646;26.980;2023-04-27T07:05:02;98728.31;;;11.77;80.06
12799;BME280;19250;42.646;26.980;2023-04-27T07:07:31;98718.03;;;11.58;81.37
12799;BME280;19250;42.646;26.980;2023-04-27T07:09:58;98720.78;;;11.89;77.86
12799;BME280;19250;42.646;26.980;2023-04-27T07:12:26;98719.97;;;11.80;78.61
12799;BME280;19250;42.646;26.980;2023-04-27T07:14:53;98715.25;;;11.90;77.41
12799;BME280;19250;42.646;26.980;2023-04-27T07:17:20;98719.88;;;12.05;76.88
12799;BME280;19250;42.646;26.980;2023-04-27T07:19:47;98720.03;;;12.34;76.44
12799;BME280;19250;42.646;26.980;2023-04-27T07:22:15;98730.88;;;12.10;78.20
12799;BME280;19250;42.646;26.980;2023-04-27T07:24:44;98733.75;;;12.00;77.29
12799;BME280;19250;42.646;26.980;2023-04-27T07:27:11;98736.69;;;12.44;75.32
12799;BME280;19250;42.646;26.980;2023-04-27T07:29:39;98735.66;;;12.45;75.70
12799;BME280;19250;42.646;26.980;2023-04-27T07:32:07;98722.00;;;12.40;74.89
12799;BME280;19250;42.646;26.980;2023-04-27T07:34:34;98746.38;;;13.13;70.33
12799;BME280;19250;42.646;26.980;2023-04-27T07:37:02;98751.97;;;13.41;68.51
12799;BME280;19250;42.646;26.980;2023-04-27T07:39:30;98755.34;;;13.57;67.01
12799;BME280;19250;42.646;26.980;2023-04-27T07:41:58;98759.13;;;13.92;64.27
12799;BME280;19250;42.646;26.980;2023-04-27T07:44:27;98759.75;;;13.94;63.20
12799;BME280;19250;42.646;26.980;2023-04-27T07:46:54;98758.00;;;14.01;61.53
12799;BME280;19250;42.646;26.980;2023-04-27T07:49:23;98757.66;;;13.75;62.90
12799;BME280;19250;42.646;26.980;2023-04-27T07:51:51;98755.94;;;13.30;64.85
12799;BME280;19250;42.646;26.980;2023-04-27T07:54:18;98760.50;;;13.44;63.02
12799;BME280;19250;42.646;26.980;2023-04-27T07:56:45;98756.34;;;13.71;63.28
12799;BME280;19250;42.646;26.980;2023-04-27T07:59:14;98751.72;;;13.65;63.60
12799;BME280;19250;42.646;26.980;2023-04-27T08:01:41;98763.53;;;13.85;62.55
12799;BME280;19250;42.646;26.980;2023-04-27T08:04:08;98757.66;;;13.75;61.46
12799;BME280;19250;42.646;26.980;2023-04-27T08:06:37;98769.56;;;14.02;60.32
12799;BME280;19250;42.646;26.980;2023-04-27T08:09:05;98764.00;;;13.59;61.02
12799;BME280;19250;42.646;26.980;2023-04-27T08:11:32;98766.59;;;13.82;60.18
12799;BME280;19250;42.646;26.980;2023-04-27T08:13:59;98767.63;;;13.81;60.87
12799;BME280;19250;42.646;26.980;2023-04-27T08:16:28;98772.44;;;13.71;59.41
12799;BME280;19250;42.646;26.980;2023-04-27T08:18:55;98767.63;;;13.81;58.58
12799;BME280;19250;42.646;26.980;2023-04-27T08:21:23;98770.47;;;13.65;58.61
12799;BME280;19250;42.646;26.980;2023-04-27T08:23:50;98768.69;;;13.43;61.83
12799;BME280;19250;42.646;26.980;2023-04-27T08:26:17;98745.38;;;13.66;60.87
12799;BME280;19250;42.646;26.980;2023-04-27T08:28:45;98767.88;;;14.01;58.87
12799;BME280;19250;42.646;26.980;2023-04-27T08:31:13;98773.00;;;13.81;57.11
12799;BME280;19250;42.646;26.980;2023-04-27T08:33:42;98775.09;;;14.15;55.99
12799;BME280;19250;42.646;26.980;2023-04-27T08:36:09;98769.06;;;14.42;55.56
12799;BME280;19250;42.646;26.980;2023-04-27T08:38:37;98767.75;;;14.95;51.12
12799;BME280;19250;42.646;26.980;2023-04-27T08:41:04;98773.56;;;14.56;53.39
12799;BME280;19250;42.646;26.980;2023-04-27T08:43:33;98777.66;;;14.52;52.11
12799;BME280;19250;42.646;26.980;2023-04-27T08:46:01;98779.66;;;14.86;49.91
12799;BME280;19250;42.646;26.980;2023-04-27T08:48:29;98770.50;;;14.81;51.38
12799;BME280;19250;42.646;26.980;2023-04-27T08:50:58;98780.03;;;15.25;48.95
12799;BME280;19250;42.646;26.980;2023-04-27T08:53:27;98775.88;;;14.81;47.93
12799;BME280;19250;42.646;26.980;2023-04-27T08:55:56;98775.19;;;14.93;48.57
12799;BME280;19250;42.646;26.980;2023-04-27T08:58:35;98773.78;;;15.18;48.16
12799;BME280;19250;42.646;26.980;2023-04-27T09:01:04;98781.16;;;15.59;45.49
12799;BME280;19250;42.646;26.980;2023-04-27T09:03:33;98767.00;;;15.78;46.14
12799;BME280;19250;42.646;26.980;2023-04-27T09:06:02;98772.59;;;16.11;45.64
12799;BME280;19250;42.646;26.980;2023-04-27T09:08:40;98783.13;;;16.12;43.63
12799;BME280;19250;42.646;26.980;2023-04-27T09:11:07;98771.91;;;15.96;43.92
12799;BME280;19250;42.646;26.980;2023-04-27T09:13:35;98769.94;;;16.17;44.11
12799;BME280;19250;42.646;26.980;2023-04-27T09:16:03;98783.91;;;16.41;42.57
12799;BME280;19250;42.646;26.980;2023-04-27T09:18:33;98774.53;;;16.77;42.21
12799;BME280;19250;42.646;26.980;2023-04-27T09:21:03;98773.53;;;16.98;41.95
12799;BME280;19250;42.646;26.980;2023-04-27T09:23:32;98769.88;;;15.70;42.33
12799;BME280;19250;42.646;26.980;2023-04-27T09:26:01;98778.16;;;16.09;42.77
12799;BME280;19250;42.646;26.980;2023-04-27T09:28:30;98777.44;;;16.28;42.17
12799;BME280;19250;42.646;26.980;2023-04-27T09:30:59;98780.84;;;16.09;41.20
12799;BME280;19250;42.646;26.980;2023-04-27T09:33:28;98775.25;;;16.04;42.15
12799;BME280;19250;42.646;26.980;2023-04-27T09:35:57;98763.00;;;15.95;42.72
12799;BME280;19250;42.646;26.980;2023-04-27T09:38:27;98768.13;;;16.92;41.92
12799;BME280;19250;42.646;26.980;2023-04-27T09:40:55;98764.63;;;17.50;39.92
12799;BME280;19250;42.646;26.980;2023-04-27T09:43:22;98765.66;;;17.82;40.30
12799;BME280;19250;42.646;26.980;2023-04-27T09:45:52;98765.47;;;18.41;39.55
12799;BME280;19250;42.646;26.980;2023-04-27T09:48:21;98756.00;;;18.70;38.82
12799;BME280;19250;42.646;26.980;2023-04-27T09:50:49;98768.91;;;18.99;37.18
12799;BME280;19250;42.646;26.980;2023-04-27T09:53:19;98761.66;;;19.24;37.11
12799;BME280;19250;42.646;26.980;2023-04-27T09:55:53;98760.72;;;19.12;36.19
12799;BME280;19250;42.646;26.980;2023-04-27T09:58:40;98757.06;;;20.53;34.45
12799;BME280;19250;42.646;26.980;2023-04-27T10:01:17;98756.16;;;20.05;35.16
12799;BME280;19250;42.646;26.980;2023-04-27T10:03:59;98753.56;;;19.24;36.05
12799;BME280;19250;42.646;26.980;2023-04-27T10:06:59;98755.91;;;18.38;36.99
12799;BME280;19250;42.646;26.980;2023-04-27T10:09:34;98764.28;;;18.24;37.66
12799;BME280;19250;42.646;26.980;2023-04-27T10:12:15;98746.34;;;18.56;37.08
12799;BME280;19250;42.646;26.980;2023-04-27T10:14:50;98753.75;;;18.67;37.58
12799;BME280;19250;42.646;26.980;2023-04-27T10:17:18;98750.66;;;19.26;36.35
12799;BME280;19250;42.646;26.980;2023-04-27T10:19:54;98747.59;;;20.08;34.57
12799;BME280;19250;42.646;26.980;2023-04-27T10:22:22;98744.75;;;20.39;34.20
12799;BME280;19250;42.646;26.980;2023-04-27T10:24:50;98749.13;;;20.70;34.79
12799;BME280;19250;42.646;26.980;2023-04-27T10:27:19;98750.00;;;20.34;35.88
12799;BME280;19250;42.646;26.980;2023-04-27T10:29:49;98748.88;;;20.05;34.94
12799;BME280;19250;42.646;26.980;2023-04-27T10:32:21;98745.84;;;20.80;33.42
12799;BME280;19250;42.646;26.980;2023-04-27T10:34:50;98754.69;;;20.45;34.88
12799;BME280;19250;42.646;26.980;2023-04-27T10:37:18;98752.41;;;19.38;35.71
12799;BME280;19250;42.646;26.980;2023-04-27T10:39:50;98748.59;;;18.90;37.16
12799;BME280;19250;42.646;26.980;2023-04-27T10:42:29;98749.03;;;18.87;38.04
12799;BME280;19250;42.646;26.980;2023-04-27T10:44:57;98751.06;;;18.98;37.84
12799;BME280;19250;42.646;26.980;2023-04-27T10:47:35;98751.38;;;18.32;38.56
12799;BME280;19250;42.646;26.980;2023-04-27T10:50:04;98747.63;;;18.78;37.54
12799;BME280;19250;42.646;26.980;2023-04-27T10:52:32;98747.38;;;18.55;38.49
12799;BME280;19250;42.646;26.980;2023-04-27T10:55:11;98752.06;;;19.28;36.95
12799;BME280;19250;42.646;26.980;2023-04-27T10:57:46;98738.28;;;19.61;36.77
12799;BME280;19250;42.646;26.980;2023-04-27T11:00:15;98741.41;;;20.19;36.48
12799;BME280;19250;42.646;26.980;2023-04-27T11:02:43;98748.94;;;20.17;36.00
12799;BME280;19250;42.646;26.980;2023-04-27T11:05:17;98750.53;;;19.64;35.74
12799;BME280;19250;42.646;26.980;2023-04-27T11:07:44;98755.38;;;19.80;35.77
12799;BME280;19250;42.646;26.980;2023-04-27T11:10:16;98733.38;;;18.71;36.99
12799;BME280;19250;42.646;26.980;2023-04-27T11:12:43;98757.16;;;18.42;37.80
12799;BME280;19250;42.646;26.980;2023-04-27T11:15:12;98750.94;;;19.11;37.40
12799;BME280;19250;42.646;26.980;2023-04-27T11:17:39;98756.63;;;20.20;35.48
12799;BME280;19250;42.646;26.980;2023-04-27T11:20:09;98767.72;;;21.26;34.88
12799;BME280;19250;42.646;26.980;2023-04-27T11:22:45;98758.00;;;21.95;32.44
12799;BME280;19250;42.646;26.980;2023-04-27T11:25:13;98759.25;;;21.57;33.72
12799;BME280;19250;42.646;26.980;2023-04-27T11:27:41;98762.28;;;21.26;33.78
12799;BME280;19250;42.646;26.980;2023-04-27T11:30:21;98767.44;;;22.04;32.63
12799;BME280;19250;42.646;26.980;2023-04-27T11:32:49;98761.91;;;21.23;33.70
12799;BME280;19250;42.646;26.980;2023-04-27T11:35:18;98770.97;;;22.04;33.09
12799;BME280;19250;42.646;26.980;2023-04-27T11:37:55;98763.13;;;22.31;31.67
12799;BME280;19250;42.646;26.980;2023-04-27T11:40:24;98758.78;;;21.49;32.75
12799;BME280;19250;42.646;26.980;2023-04-27T11:42:56;98761.91;;;21.11;33.02
12799;BME280;19250;42.646;26.980;2023-04-27T11:45:26;98765.41;;;21.99;32.94
12799;BME280;19250;42.646;26.980;2023-04-27T11:47:53;98758.31;;;21.40;33.42
12799;BME280;19250;42.646;26.980;2023-04-27T11:50:23;98768.28;;;20.57;33.95
12799;BME280;19250;42.646;26.980;2023-04-27T11:52:51;98757.53;;;19.53;35.79
12799;BME280;19250;42.646;26.980;2023-04-27T11:55:22;98770.16;;;19.59;36.69
12799;BME280;19250;42.646;26.980;2023-04-27T11:57:55;98764.34;;;19.55;36.09
12799;BME280;19250;42.646;26.980;2023-04-27T12:00:25;98770.53;;;19.63;36.89
12799;BME280;19250;42.646;26.980;2023-04-27T12:02:52;98766.31;;;19.67;38.08
12799;BME280;19250;42.646;26.980;2023-04-27T12:05:20;98762.44;;;18.69;38.71
12799;BME280;19250;42.646;26.980;2023-04-27T12:07:47;98777.94;;;18.35;38.94
12799;BME280;19250;42.646;26.980;2023-04-27T12:10:14;98773.06;;;18.06;39.35
12799;BME280;19250;42.646;26.980;2023-04-27T12:12:42;98785.44;;;18.33;39.23
12799;BME280;19250;42.646;26.980;2023-04-27T12:15:10;98782.03;;;17.80;41.47
12799;BME280;19250;42.646;26.980;2023-04-27T12:17:39;98783.78;;;18.32;40.38
12799;BME280;19250;42.646;26.980;2023-04-27T12:20:07;98777.84;;;18.99;38.96
12799;BME280;19250;42.646;26.980;2023-04-27T12:22:34;98773.72;;;18.97;39.92
12799;BME280;19250;42.646;26.980;2023-04-27T12:25:03;98790.19;;;19.51;37.87
12799;BME280;19250;42.646;26.980;2023-04-27T12:27:30;98779.75;;;20.16;36.49
12799;BME280;19250;42.646;26.980;2023-04-27T12:29:58;98789.88;;;20.63;36.15
12799;BME280;19250;42.646;26.980;2023-04-27T12:32:25;98781.19;;;21.44;36.02
12799;BME280;19250;42.646;26.980;2023-04-27T12:34:54;98796.22;;;22.80;32.81
12799;BME280;19250;42.646;26.980;2023-04-27T12:37:22;98787.25;;;23.07;32.24
12799;BME280;19250;42.646;26.980;2023-04-27T12:39:49;98791.59;;;22.17;33.07
12799;BME280;19250;42.646;26.980;2023-04-27T12:42:16;98795.56;;;21.33;34.69
12799;BME280;19250;42.646;26.980;2023-04-27T12:44:48;98790.63;;;20.34;36.02
12799;BME280;19250;42.646;26.980;2023-04-27T12:47:16;98800.69;;;19.41;37.74
12799;BME280;19250;42.646;26.980;2023-04-27T12:49:43;98798.78;;;19.67;37.55
12799;BME280;19250;42.646;26.980;2023-04-27T12:52:12;98803.97;;;19.12;38.45
12799;BME280;19250;42.646;26.980;2023-04-27T12:54:39;98801.78;;;19.59;37.99